createdAt,value
2022-08-27T00:04:43.671Z,8.10
2022-08-27T00:09:47.122Z,4.80
2022-08-27T00:14:50.668Z,8.03
2022-08-27T00:19:55.494Z,8.10
2022-08-27T00:24:59.252Z,8.47
2022-08-27T00:30:02.520Z,9.60
2022-08-27T00:35:08.088Z,7.73
2022-08-27T00:40:13.383Z,7.17
2022-08-27T00:45:17.978Z,10.10
2022-08-27T00:50:26.063Z,9.30
2022-08-27T00:55:33.404Z,11.87
2022-08-27T01:00:39.010Z,11.70
2022-08-27T01:05:44.195Z,11.77
2022-08-27T01:10:47.633Z,11.57
2022-08-27T01:15:51.151Z,12.90
2022-08-27T01:20:58.110Z,9.33
2022-08-27T01:26:03.986Z,9.30
2022-08-27T01:31:08.868Z,11.03
2022-08-27T01:36:12.269Z,12.57
2022-08-27T01:41:17.093Z,9.30
2022-08-27T01:46:21.992Z,12.70
2022-08-27T01:51:25.381Z,9.07
2022-08-27T01:56:30.149Z,10.27
2022-08-27T02:01:33.838Z,11.27
2022-08-27T02:06:37.256Z,12.03
2022-08-27T02:11:44.801Z,12.17
2022-08-27T02:16:52.156Z,11.07
2022-08-27T02:22:00.252Z,10.63
2022-08-27T02:27:05.185Z,11.10
2022-08-27T02:32:17.620Z,13.03
2022-08-27T02:37:28.475Z,14.20
2022-08-27T02:42:33.229Z,12.33
2022-08-27T02:47:36.723Z,14.90
2022-08-27T02:52:40.266Z,12.70
2022-08-27T02:57:45.064Z,19.67
2022-08-27T03:02:48.567Z,14.80
2022-08-27T03:07:52.047Z,27.00
2022-08-27T03:12:57.646Z,22.27
2022-08-27T03:18:19.174Z,25.50
2022-08-27T03:23:25.202Z,18.23
2022-08-27T03:28:30.621Z,21.00
2022-08-27T03:33:35.009Z,25.03
2022-08-27T03:38:39.923Z,32.90
2022-08-27T03:43:44.739Z,29.67
2022-08-27T03:48:48.996Z,29.57
2022-08-27T03:53:55.507Z,28.97
2022-08-27T03:59:00.243Z,32.80
2022-08-27T04:04:03.734Z,30.40
2022-08-27T04:09:07.429Z,30.00
2022-08-27T04:14:20.805Z,25.73
2022-08-27T04:19:33.203Z,30.20
2022-08-27T04:24:37.616Z,33.70
2022-08-27T04:29:42.346Z,39.40
2022-08-27T04:34:45.787Z,37.77
2022-08-27T04:39:50.381Z,42.50
2022-08-27T04:44:55.133Z,45.73
2022-08-27T04:49:58.514Z,41.00
2022-08-27T04:55:01.787Z,48.10
2022-08-27T05:00:08.244Z,71.10
2022-08-27T05:05:15.849Z,72.60
2022-08-27T05:10:19.561Z,75.87
2022-08-27T05:15:24.767Z,78.00
2022-08-27T05:20:28.439Z,70.67
2022-08-27T05:25:31.774Z,63.23
2022-08-27T05:30:38.798Z,59.90
2022-08-27T05:35:42.971Z,66.60
2022-08-27T05:40:48.054Z,58.90
2022-08-27T05:45:52.809Z,62.77
2022-08-27T05:50:56.277Z,69.90
2022-08-27T05:56:00.665Z,66.03
2022-08-27T06:01:10.418Z,79.33
2022-08-27T06:06:14.165Z,74.30
2022-08-27T06:11:19.136Z,65.73
2022-08-27T06:16:24.040Z,65.70
2022-08-27T06:21:27.625Z,65.37
2022-08-27T06:26:31.288Z,59.97
2022-08-27T06:31:36.194Z,65.83
2022-08-27T06:36:41.409Z,78.30
2022-08-27T06:41:45.096Z,65.93
2022-08-27T06:46:49.800Z,66.33
2022-08-27T06:51:53.662Z,82.80
2022-08-27T06:56:59.606Z,71.87
2022-08-27T07:02:04.375Z,63.07
2022-08-27T07:07:08.659Z,70.40
2022-08-27T07:12:12.225Z,74.53
2022-08-27T07:17:17.592Z,70.80
2022-08-27T07:22:20.940Z,66.53
2022-08-27T07:27:24.314Z,76.90
2022-08-27T07:32:31.283Z,71.77
2022-08-27T07:37:35.481Z,69.90
2022-08-27T07:42:56.590Z,68.30
2022-08-27T07:48:01.279Z,60.40
2022-08-27T07:53:04.700Z,57.87
2022-08-27T07:58:11.517Z,55.87
2022-08-27T08:03:16.880Z,55.17
2022-08-27T08:08:20.486Z,53.70
2022-08-27T08:13:23.901Z,56.07
2022-08-27T08:18:28.889Z,50.40
2022-08-27T08:23:33.073Z,61.63
2022-08-27T08:28:37.173Z,46.27
2022-08-27T08:33:41.948Z,47.13
2022-08-27T08:38:46.357Z,46.17
2022-08-27T08:43:51.794Z,47.43
2022-08-27T08:48:58.457Z,45.40
2022-08-27T08:54:03.946Z,42.40
2022-08-27T08:59:10.169Z,49.27
2022-08-27T09:04:14.980Z,44.57
2022-08-27T09:09:22.325Z,51.50
2022-08-27T09:14:31.503Z,41.47
2022-08-27T09:19:37.280Z,46.93
2022-08-27T09:24:45.947Z,11.33
2022-08-27T09:29:50.378Z,12.00
2022-08-27T09:34:58.646Z,8.83
2022-08-27T09:40:05.648Z,7.57
2022-08-27T09:45:18.526Z,3.17
2022-08-27T09:50:24.362Z,5.00
2022-08-27T09:55:32.186Z,4.33
2022-08-27T10:00:37.818Z,4.60
2022-08-27T10:05:44.747Z,4.50
2022-08-27T10:10:52.321Z,4.97
2022-08-27T10:16:02.576Z,6.30
2022-08-27T10:21:10.391Z,4.57
2022-08-27T10:26:16.146Z,5.60
2022-08-27T10:31:25.299Z,4.47
2022-08-27T10:36:35.716Z,4.70
2022-08-27T10:41:43.196Z,4.80
2022-08-27T10:46:55.085Z,4.47
2022-08-27T10:52:08.129Z,6.70
2022-08-27T10:57:31.698Z,4.23
2022-08-27T11:02:43.091Z,5.53
2022-08-27T11:07:50.870Z,4.33
2022-08-27T11:12:56.633Z,7.03
2022-08-27T11:18:03.000Z,6.93
2022-08-27T11:23:10.212Z,4.63
2022-08-27T11:28:13.939Z,5.60
2022-08-27T11:33:19.832Z,7.83
2022-08-27T11:38:30.384Z,5.20
2022-08-27T11:43:35.184Z,5.50
2022-08-27T11:48:40.914Z,6.27
2022-08-27T11:53:56.859Z,5.73
2022-08-27T11:59:09.860Z,6.10
2022-08-27T12:04:23.725Z,7.03
2022-08-27T12:09:28.786Z,6.23
2022-08-27T12:14:40.380Z,5.37
2022-08-27T12:19:48.155Z,5.53
2022-08-27T12:24:55.813Z,4.80
2022-08-27T12:30:00.526Z,7.77
2022-08-27T12:35:06.594Z,5.60
2022-08-27T12:40:16.400Z,6.07
2022-08-27T12:45:25.634Z,5.53
2022-08-27T12:50:30.579Z,4.83
2022-08-27T12:55:46.181Z,5.13
2022-08-27T13:01:13.024Z,5.37
2022-08-27T13:06:18.272Z,5.70
2022-08-27T13:11:23.780Z,6.20
2022-08-27T13:16:29.509Z,6.50
2022-08-27T13:21:33.397Z,6.93
2022-08-27T13:26:39.347Z,7.13
2022-08-27T13:31:43.775Z,8.47
2022-08-27T13:36:55.726Z,8.67
2022-08-27T13:42:02.062Z,11.47
2022-08-27T13:47:07.356Z,9.20
2022-08-27T13:52:17.076Z,10.33
2022-08-27T13:57:26.478Z,11.37
2022-08-27T14:02:30.437Z,12.40
2022-08-27T14:07:36.337Z,7.70
2022-08-27T14:12:42.481Z,8.53
2022-08-27T14:17:46.995Z,9.37
2022-08-27T14:22:51.022Z,10.17
2022-08-27T14:27:57.366Z,10.63
2022-08-27T14:33:01.447Z,11.80
2022-08-27T14:38:08.429Z,10.63
2022-08-27T14:43:13.871Z,12.20
2022-08-27T14:48:20.536Z,10.50
2022-08-27T14:53:31.974Z,9.90
2022-08-27T14:58:36.740Z,10.87
2022-08-27T15:03:40.848Z,11.53
2022-08-27T15:08:44.694Z,12.23
2022-08-27T15:13:49.608Z,13.33
2022-08-27T15:18:59.291Z,13.77
2022-08-27T15:24:06.473Z,12.00
2022-08-27T15:29:11.326Z,13.80
2022-08-27T15:34:14.757Z,13.33
2022-08-27T15:39:18.314Z,17.60
2022-08-27T15:44:23.173Z,13.97
2022-08-27T15:49:26.612Z,15.07
2022-08-27T15:54:30.085Z,15.30
2022-08-27T15:59:34.855Z,14.20
2022-08-27T16:04:40.640Z,15.83
2022-08-27T16:09:44.668Z,16.07
2022-08-27T16:14:49.693Z,14.97
2022-08-27T16:19:53.156Z,16.50
2022-08-27T16:24:56.646Z,16.27
2022-08-27T16:30:01.618Z,15.27
2022-08-27T16:35:05.398Z,19.00
2022-08-27T16:40:09.429Z,17.17
2022-08-27T16:45:14.991Z,17.23
2022-08-27T16:50:36.433Z,19.20
2022-08-27T16:55:39.968Z,16.40
2022-08-27T17:00:44.922Z,17.60
2022-08-27T17:05:48.486Z,19.27
2022-08-27T17:10:54.315Z,24.10
2022-08-27T17:16:01.634Z,18.10
2022-08-27T17:21:05.621Z,18.20
2022-08-27T17:26:10.338Z,17.23
2022-08-27T17:31:16.327Z,15.17
2022-08-27T17:36:32.075Z,13.70
2022-08-27T17:41:38.596Z,13.30
2022-08-27T17:46:43.501Z,11.87
2022-08-27T17:51:48.464Z,15.00
2022-08-27T17:56:51.977Z,15.43
2022-08-27T18:01:57.032Z,14.13
2022-08-27T18:07:00.471Z,16.50
2022-08-27T18:12:04.669Z,18.30
2022-08-27T18:17:09.481Z,17.17
2022-08-27T18:22:17.091Z,16.53
2022-08-27T18:27:21.653Z,14.87
2022-08-27T18:32:26.601Z,19.90
2022-08-27T18:37:30.067Z,20.43
2022-08-27T18:42:35.391Z,19.37
2022-08-27T18:47:40.401Z,16.60
2022-08-27T18:52:44.220Z,15.80
2022-08-27T18:57:47.763Z,12.03
2022-08-27T19:02:53.514Z,13.50
2022-08-27T19:07:57.138Z,18.87
2022-08-27T19:13:00.537Z,14.30
2022-08-27T19:18:05.637Z,17.63
2022-08-27T19:23:09.066Z,14.20
2022-08-27T19:28:12.524Z,17.47
2022-08-27T19:33:17.374Z,15.70
2022-08-27T19:38:20.731Z,17.07
2022-08-27T19:43:24.166Z,14.77
2022-08-27T19:48:29.024Z,17.13
2022-08-27T19:53:33.594Z,16.33
2022-08-27T19:58:37.016Z,19.40
2022-08-27T20:03:41.782Z,15.97
2022-08-27T20:08:45.421Z,15.37
2022-08-27T20:13:51.323Z,14.80
2022-08-27T20:18:59.631Z,20.47
2022-08-27T20:24:04.592Z,18.93
2022-08-27T20:29:08.809Z,13.37
2022-08-27T20:34:14.501Z,14.33
2022-08-27T20:39:17.920Z,13.87
2022-08-27T20:44:21.271Z,9.93
2022-08-27T20:49:27.971Z,10.63
2022-08-27T20:54:31.344Z,11.00
2022-08-27T20:59:52.364Z,9.67
2022-08-27T21:04:57.671Z,10.03
2022-08-27T21:10:01.120Z,10.03
2022-08-27T21:15:05.790Z,11.43
2022-08-27T21:20:12.141Z,12.47
2022-08-27T21:25:15.596Z,11.93
2022-08-27T21:30:19.198Z,10.93
2022-08-27T21:35:26.475Z,13.77
2022-08-27T21:40:30.226Z,15.43
2022-08-27T21:45:33.666Z,15.50
2022-08-27T21:50:38.652Z,15.97
2022-08-27T21:55:42.046Z,16.67
2022-08-27T22:00:47.771Z,16.27
2022-08-27T22:05:52.986Z,15.50
2022-08-27T22:10:57.925Z,19.37
2022-08-27T22:16:01.333Z,17.67
2022-08-27T22:21:07.072Z,16.93
2022-08-27T22:26:10.355Z,20.60
2022-08-27T22:31:13.955Z,19.00
2022-08-27T22:36:18.693Z,16.10
2022-08-27T22:41:22.216Z,16.90
2022-08-27T22:46:25.660Z,15.10
2022-08-27T22:51:30.386Z,17.50
2022-08-27T22:56:34.108Z,20.20
2022-08-27T23:01:37.457Z,18.37
2022-08-27T23:06:42.216Z,21.07
2022-08-27T23:11:45.721Z,20.67
2022-08-27T23:16:49.154Z,25.63
2022-08-27T23:21:53.962Z,22.77
2022-08-27T23:27:14.716Z,27.67
2022-08-27T23:32:18.153Z,25.77
2022-08-27T23:37:23.936Z,23.47
2022-08-27T23:42:28.172Z,25.73
2022-08-27T23:47:31.596Z,26.80
2022-08-27T23:52:36.650Z,21.83
2022-08-27T23:57:40.429Z,23.83
